Time;durP1;ratioP1;P1;durP2;ratioP2;P2;SDS_P1;SDS_P2;PMS_P1;PMS_P2;Temp;Humidity;BMP_temperature;BMP_pressure;BME280_temperature;BME280_humidity;BME280_pressure;Samples;Min_cycle;Max_cycle;Signal;HPM_P1;HPM_P2
2022/03/28 00:01:08;;;;;;;6.05;1.42;;;5.10;80.60;;;;;;4039271;28;20062;-79
2022/03/28 00:03:11;;;;;;;5.25;1.77;;;5.10;80.70;;;;;;4049691;28;20481;-79
2022/03/28 00:05:31;;;;;;;5.32;1.33;;;5.10;80.80;;;;;;4043522;28;20048;-79
2022/03/28 00:07:41;;;;;;;7.60;2.22;;;5.10;80.80;;;;;;4056128;28;20052;-79
2022/03/28 00:09:43;;;;;;;9.15;1.83;;;5.10;80.80;;;;;;4059187;28;20052;-79
2022/03/28 00:11:55;;;;;;;14.38;2.30;;;5.10;80.80;;;;;;4056697;28;20056;-79
2022/03/28 00:13:57;;;;;;;9.57;2.00;;;5.10;80.80;;;;;;4055436;28;20063;-79
2022/03/28 00:15:58;;;;;;;13.13;2.22;;;5.10;80.80;;;;;;4057867;28;20425;-79
2022/03/28 00:18:19;;;;;;;7.60;2.38;;;5.00;80.60;;;;;;4055382;28;20498;-79
2022/03/28 00:20:20;;;;;;;7.30;2.30;;;5.00;80.70;;;;;;4058612;28;20043;-79
2022/03/28 00:22:21;;;;;;;6.80;2.03;;;5.00;80.90;;;;;;4047519;28;20049;-79
2022/03/28 00:24:24;;;;;;;8.95;1.92;;;4.90;81.00;;;;;;4072422;28;20768;-79
2022/03/28 00:26:27;;;;;;;10.55;2.13;;;4.90;81.20;;;;;;4050597;28;20047;-79
2022/03/28 00:28:29;;;;;;;19.38;2.60;;;4.90;81.20;;;;;;4048061;28;20064;-79
2022/03/28 00:30:30;;;;;;;7.53;2.13;;;4.90;81.40;;;;;;4061566;28;20055;-79
2022/03/28 00:32:31;;;;;;;7.65;2.00;;;4.90;81.60;;;;;;4041877;28;20597;-79
2022/03/28 00:34:31;;;;;;;8.15;2.00;;;4.90;81.70;;;;;;4067199;28;20111;-78
2022/03/28 00:36:32;;;;;;;10.10;3.10;;;4.90;81.70;;;;;;4029994;28;20043;-77
2022/03/28 00:38:33;;;;;;;5.22;2.30;;;5.00;81.80;;;;;;4048750;28;20101;-78
2022/03/28 00:40:33;;;;;;;8.82;2.20;;;4.90;81.80;;;;;;4063612;28;20462;-78
2022/03/28 00:42:36;;;;;;;9.77;2.30;;;4.90;81.60;;;;;;4073563;28;20051;-78
2022/03/28 00:44:37;;;;;;;7.30;2.00;;;4.90;81.50;;;;;;4050011;28;20037;-78
2022/03/28 00:46:39;;;;;;;6.13;1.85;;;4.90;81.60;;;;;;4071606;28;20038;-78
2022/03/28 00:48:42;;;;;;;7.53;1.90;;;4.80;81.20;;;;;;4061615;28;20409;-78
2022/03/28 00:50:43;;;;;;;6.72;1.60;;;4.80;81.00;;;;;;4055083;28;20104;-78
2022/03/28 00:52:44;;;;;;;7.00;1.70;;;4.80;81.10;;;;;;4061389;28;20597;-77
2022/03/28 00:54:46;;;;;;;1.83;1.10;;;4.70;81.20;;;;;;4044417;28;20037;-78
2022/03/28 00:56:47;;;;;;;6.40;1.52;;;4.70;81.40;;;;;;4044036;28;20220;-77
2022/03/28 00:58:48;;;;;;;7.07;1.48;;;4.70;81.50;;;;;;4055580;28;20040;-78
2022/03/28 01:00:49;;;;;;;6.38;1.38;;;4.70;81.60;;;;;;4041943;28;20407;-78
2022/03/28 01:02:50;;;;;;;2.80;1.27;;;4.70;81.60;;;;;;4040536;28;20036;-78
2022/03/28 01:04:50;;;;;;;3.63;1.27;;;4.70;81.70;;;;;;4057774;28;20055;-78
2022/03/28 01:06:51;;;;;;;4.15;0.75;;;4.70;81.90;;;;;;4051095;28;20052;-78
2022/03/28 01:08:52;;;;;;;3.47;1.13;;;4.60;81.90;;;;;;4058993;28;20033;-78
2022/03/28 01:10:54;;;;;;;2.65;0.90;;;4.60;81.90;;;;;;4062569;28;20093;-78
2022/03/28 01:12:54;;;;;;;3.90;1.33;;;4.60;82.00;;;;;;4062941;28;20517;-77
2022/03/28 01:14:55;;;;;;;6.43;1.20;;;4.60;82.10;;;;;;4058135;28;20028;-78
2022/03/28 01:19:15;;;;;;;4.68;0.80;;;4.50;82.60;;;;;;4043255;28;20028;-77
2022/03/28 01:21:19;;;;;;;3.15;1.02;;;4.50;83.50;;;;;;4054462;28;20040;-77
2022/03/28 01:23:21;;;;;;;3.90;1.20;;;4.50;82.90;;;;;;4032791;28;20409;-78
2022/03/28 01:25:23;;;;;;;1.88;0.93;;;4.40;82.90;;;;;;4062679;28;20534;-78
2022/03/28 01:27:24;;;;;;;2.63;1.08;;;4.50;83.00;;;;;;4044926;28;20058;-78
2022/03/28 01:29:25;;;;;;;4.30;1.23;;;4.50;82.90;;;;;;4044937;28;20467;-78
2022/03/28 01:31:26;;;;;;;7.43;0.90;;;4.40;82.90;;;;;;4055505;28;20496;-78
2022/03/28 01:33:26;;;;;;;2.70;0.95;;;4.50;83.00;;;;;;4120311;28;20050;-78
2022/03/28 01:35:35;;;;;;;3.90;1.30;;;4.40;83.00;;;;;;4054784;28;20028;-78
2022/03/28 01:37:36;;;;;;;5.05;1.15;;;4.40;83.10;;;;;;4054252;28;20445;-78
2022/03/28 01:39:36;;;;;;;7.25;1.20;;;4.40;83.20;;;;;;4058458;28;20057;-78
2022/03/28 01:41:37;;;;;;;2.72;0.80;;;4.40;83.30;;;;;;4058447;28;20033;-78
2022/03/28 01:43:38;;;;;;;3.88;0.75;;;4.40;83.50;;;;;;4057070;28;20494;-78
2022/03/28 01:45:39;;;;;;;3.08;1.10;;;4.40;83.60;;;;;;4047391;28;20399;-78
2022/03/28 01:47:40;;;;;;;6.85;0.80;;;4.40;83.60;;;;;;4045601;28;20033;-78
2022/03/28 01:49:41;;;;;;;3.67;0.90;;;4.40;83.70;;;;;;4041274;28;21083;-79
2022/03/28 01:51:42;;;;;;;3.38;0.98;;;4.50;83.70;;;;;;4061928;28;20052;-79
2022/03/28 01:53:46;;;;;;;5.63;1.00;;;4.50;83.70;;;;;;4055188;28;20040;-79
2022/03/28 01:55:48;;;;;;;3.50;0.98;;;4.50;83.50;;;;;;4057968;28;20052;-77
2022/03/28 01:57:49;;;;;;;9.00;0.90;;;4.40;83.30;;;;;;4053150;28;20159;-78
2022/03/28 01:59:49;;;;;;;6.70;1.30;;;4.40;83.30;;;;;;4061247;28;20585;-78
2022/03/28 02:01:51;;;;;;;6.28;1.52;;;4.40;83.20;;;;;;4060978;28;20034;-78
2022/03/28 02:03:51;;;;;;;4.72;1.23;;;4.40;83.30;;;;;;4059135;28;20047;-78
2022/03/28 02:05:52;;;;;;;3.83;0.93;;;4.50;83.40;;;;;;4053861;28;20028;-78
2022/03/28 02:07:53;;;;;;;3.50;0.90;;;4.40;83.40;;;;;;4054689;28;20044;-78
2022/03/28 02:09:53;;;;;;;9.95;1.50;;;4.50;83.50;;;;;;4046286;28;20039;-78
2022/03/28 02:11:54;;;;;;;5.28;1.00;;;4.40;83.50;;;;;;4042254;28;20057;-78
2022/03/28 02:13:55;;;;;;;2.95;1.00;;;4.50;83.50;;;;;;4059176;28;20039;-78
2022/03/28 02:15:56;;;;;;;3.35;1.05;;;4.50;83.70;;;;;;4056531;28;20067;-78
2022/03/28 02:17:57;;;;;;;5.38;1.25;;;4.50;83.60;;;;;;4053582;28;20040;-78
2022/03/28 02:19:58;;;;;;;2.85;0.88;;;4.50;83.60;;;;;;4045322;28;20043;-78
2022/03/28 02:21:59;;;;;;;5.72;1.17;;;4.50;83.50;;;;;;4055866;28;20730;-78
2022/03/28 02:24:00;;;;;;;4.95;0.95;;;4.50;83.50;;;;;;4056083;28;20035;-79
2022/03/28 02:26:02;;;;;;;4.80;1.20;;;4.50;83.60;;;;;;4056683;28;20029;-78
2022/03/28 02:28:04;;;;;;;3.10;1.03;;;4.50;83.60;;;;;;4016873;29;20034;-78
2022/03/28 02:30:06;;;;;;;3.75;1.30;;;4.50;83.70;;;;;;4057291;28;20300;-78
2022/03/28 02:32:07;;;;;;;2.53;1.27;;;4.50;83.60;;;;;;4059890;28;20508;-78
2022/03/28 02:34:08;;;;;;;5.70;1.40;;;4.50;83.60;;;;;;4055137;28;20036;-77
2022/03/28 02:36:08;;;;;;;6.72;1.50;;;4.50;83.70;;;;;;4057327;28;20403;-77
2022/03/28 02:38:09;;;;;;;3.83;1.42;;;4.50;83.70;;;;;;4057258;28;20119;-77
2022/03/28 02:40:12;;;;;;;3.40;1.67;;;4.50;83.70;;;;;;4042421;28;20033;-77
2022/03/28 02:42:14;;;;;;;5.65;1.45;;;4.50;83.80;;;;;;4071555;28;20036;-78
2022/03/28 02:44:15;;;;;;;7.70;1.10;;;4.50;84.50;;;;;;4052228;28;20486;-78
2022/03/28 02:46:15;;;;;;;8.10;1.63;;;4.50;83.80;;;;;;4041862;28;21769;-78
2022/03/28 02:48:16;;;;;;;5.35;1.48;;;4.50;83.80;;;;;;4037019;28;20022;-78
2022/03/28 02:50:16;;;;;;;3.70;1.10;;;4.50;83.80;;;;;;4051558;28;20135;-78
2022/03/28 02:52:17;;;;;;;2.97;1.23;;;4.50;83.80;;;;;;4035731;28;20478;-78
2022/03/28 02:54:18;;;;;;;4.18;1.35;;;4.50;83.80;;;;;;4059647;28;20553;-77
2022/03/28 02:56:19;;;;;;;4.13;1.20;;;4.50;83.70;;;;;;4031176;28;20028;-77
2022/03/28 02:58:20;;;;;;;4.75;1.45;;;4.50;83.80;;;;;;4041469;28;20112;-77
2022/03/28 03:00:21;;;;;;;3.63;1.15;;;4.50;83.80;;;;;;4061493;28;20611;-78
2022/03/28 03:02:21;;;;;;;4.80;1.55;;;4.40;83.70;;;;;;4059642;28;20119;-78
2022/03/28 03:04:22;;;;;;;4.22;1.10;;;4.50;83.80;;;;;;4059395;28;20616;-77
2022/03/28 03:06:22;;;;;;;5.82;1.60;;;4.40;83.70;;;;;;4046055;28;20030;-77
2022/03/28 03:08:23;;;;;;;1.80;1.10;;;4.50;83.80;;;;;;4056000;28;20530;-77
2022/03/28 03:10:24;;;;;;;1.55;0.88;;;4.40;83.70;;;;;;4058085;28;20052;-77
2022/03/28 03:12:24;;;;;;;2.92;1.10;;;4.40;83.70;;;;;;4055715;28;20106;-77
2022/03/28 03:14:25;;;;;;;7.03;1.27;;;4.40;83.60;;;;;;4030497;28;20088;-77
2022/03/28 03:16:26;;;;;;;4.07;1.35;;;4.50;83.70;;;;;;4064668;28;20035;-77
2022/03/28 03:18:27;;;;;;;4.43;1.02;;;4.50;83.70;;;;;;4057264;28;20028;-77
2022/03/28 03:20:28;;;;;;;4.00;1.00;;;4.50;83.70;;;;;;4081840;28;20033;-78
2022/03/28 03:22:28;;;;;;;3.13;1.10;;;4.50;83.50;;;;;;4061285;28;20028;-78
2022/03/28 03:24:29;;;;;;;3.38;1.08;;;4.50;83.60;;;;;;4041253;28;20037;-78
2022/03/28 03:26:30;;;;;;;3.08;0.85;;;4.50;83.60;;;;;;4061889;28;20079;-79
2022/03/28 03:28:30;;;;;;;3.92;1.13;;;4.60;83.60;;;;;;4062709;28;20084;-78
2022/03/28 03:30:31;;;;;;;2.75;1.05;;;4.50;83.50;;;;;;4048181;28;20029;-78
2022/03/28 03:32:32;;;;;;;3.00;0.93;;;4.60;83.50;;;;;;4066165;28;20489;-78
2022/03/28 03:34:33;;;;;;;3.13;1.10;;;4.60;83.50;;;;;;4056917;28;20079;-78
2022/03/28 03:36:34;;;;;;;4.05;1.33;;;4.60;83.50;;;;;;4048329;28;20538;-78
2022/03/28 03:38:35;;;;;;;7.10;1.30;;;4.60;83.40;;;;;;4054154;28;20041;-78
2022/03/28 03:40:35;;;;;;;3.92;1.40;;;4.60;84.10;;;;;;4070826;28;20038;-78
2022/03/28 03:42:36;;;;;;;6.00;1.75;;;4.60;83.30;;;;;;4070861;28;21020;-78
2022/03/28 03:44:37;;;;;;;3.35;1.50;;;4.60;83.30;;;;;;4043509;28;20104;-78
2022/03/28 03:46:38;;;;;;;4.97;1.80;;;4.60;83.20;;;;;;4058961;28;20036;-78
2022/03/28 03:48:39;;;;;;;3.40;1.75;;;4.70;83.30;;;;;;4059547;28;20718;-77
2022/03/28 03:50:41;;;;;;;6.40;1.50;;;4.70;83.20;;;;;;4030960;28;20033;-78
2022/03/28 03:52:42;;;;;;;2.83;1.38;;;4.70;83.20;;;;;;4059570;28;20497;-78
2022/03/28 03:54:42;;;;;;;3.80;1.80;;;4.70;83.20;;;;;;4058217;28;20066;-78
2022/03/28 03:56:43;;;;;;;3.67;1.80;;;4.70;83.10;;;;;;4045843;28;20029;-78
2022/03/28 03:58:44;;;;;;;4.85;1.60;;;4.70;83.10;;;;;;4064511;28;20064;-78
2022/03/28 04:00:48;;;;;;;7.22;1.65;;;4.70;83.10;;;;;;4059346;28;20032;-78
2022/03/28 04:02:50;;;;;;;5.00;1.98;;;4.70;83.00;;;;;;4058975;28;20407;-79
2022/03/28 04:04:51;;;;;;;4.28;1.75;;;4.70;83.00;;;;;;4041549;28;20119;-78
2022/03/28 04:06:52;;;;;;;5.10;1.90;;;4.70;83.00;;;;;;4057488;28;20452;-79
2022/03/28 04:08:52;;;;;;;5.43;2.05;;;4.70;82.90;;;;;;4058944;28;20119;-79
2022/03/28 04:10:53;;;;;;;5.13;1.80;;;4.70;82.80;;;;;;4038014;28;20314;-79
2022/03/28 04:12:56;;;;;;;6.75;1.80;;;4.80;82.90;;;;;;4062576;28;20041;-79
2022/03/28 04:14:59;;;;;;;3.75;1.75;;;4.80;82.80;;;;;;4060697;28;20485;-79
2022/03/28 04:17:00;;;;;;;5.72;2.00;;;4.80;82.70;;;;;;4065928;28;20036;-77
2022/03/28 04:19:00;;;;;;;4.00;1.80;;;4.80;82.70;;;;;;4060824;28;20056;-77
2022/03/28 04:21:02;;;;;;;5.30;1.73;;;4.80;82.60;;;;;;4042151;28;20518;-77
2022/03/28 04:23:03;;;;;;;4.18;1.45;;;4.80;82.60;;;;;;4062438;28;20040;-77
2022/03/28 04:25:04;;;;;;;4.18;1.77;;;4.80;82.60;;;;;;4050339;28;20059;-78
2022/03/28 04:27:05;;;;;;;4.13;1.55;;;4.80;82.50;;;;;;4061277;28;20173;-78
2022/03/28 04:29:08;;;;;;;5.68;1.90;;;4.80;82.40;;;;;;4046435;28;20029;-78
2022/03/28 04:31:18;;;;;;;4.18;1.85;;;4.80;83.10;;;;;;4050307;28;21666;-78
2022/03/28 04:33:19;;;;;;;7.25;2.28;;;4.80;82.30;;;;;;4053673;28;20132;-78
2022/03/28 04:35:19;;;;;;;3.63;1.90;;;4.90;82.30;;;;;;4058951;28;20494;-78
2022/03/28 04:37:20;;;;;;;4.93;1.85;;;4.90;82.30;;;;;;4051121;28;20037;-78
2022/03/28 04:39:21;;;;;;;6.65;2.13;;;4.90;82.20;;;;;;4055763;28;20386;-78
2022/03/28 04:41:22;;;;;;;4.13;2.10;;;4.90;82.20;;;;;;4064395;28;20412;-78
2022/03/28 04:43:23;;;;;;;3.85;1.80;;;4.90;82.10;;;;;;4052799;28;20033;-78
2022/03/28 04:45:24;;;;;;;4.57;1.85;;;4.90;82.10;;;;;;4064517;28;20028;-78
2022/03/28 04:47:25;;;;;;;9.75;2.40;;;4.90;82.00;;;;;;4042850;28;20204;-78
2022/03/28 04:49:26;;;;;;;5.03;1.90;;;4.90;82.00;;;;;;4049285;28;20068;-78
2022/03/28 04:51:26;;;;;;;5.88;2.35;;;4.90;81.90;;;;;;4058827;28;20068;-78
2022/03/28 04:53:27;;;;;;;9.32;1.95;;;4.90;81.90;;;;;;4061330;28;20787;-78
2022/03/28 04:55:28;;;;;;;3.03;1.80;;;4.90;81.90;;;;;;4052033;28;20067;-78
2022/03/28 04:57:28;;;;;;;7.07;1.95;;;4.90;81.90;;;;;;4055731;28;20063;-78
2022/03/28 04:59:29;;;;;;;9.98;2.20;;;4.90;81.90;;;;;;4046158;28;20123;-78
2022/03/28 05:01:31;;;;;;;5.57;2.30;;;4.90;81.80;;;;;;4067142;28;20020;-78
2022/03/28 05:03:32;;;;;;;5.47;2.17;;;4.90;81.80;;;;;;4041963;28;20033;-78
2022/03/28 05:05:32;;;;;;;3.95;1.83;;;4.90;81.80;;;;;;4047169;28;20025;-78
2022/03/28 05:07:35;;;;;;;8.70;2.05;;;4.90;81.70;;;;;;4045636;28;20036;-78
2022/03/28 05:09:37;;;;;;;3.70;1.70;;;4.90;81.70;;;;;;4047071;28;20438;-78
2022/03/28 05:11:37;;;;;;;4.22;1.90;;;4.90;81.70;;;;;;4068158;28;20032;-78
2022/03/28 05:13:38;;;;;;;5.90;1.98;;;4.90;81.70;;;;;;4061976;28;20044;-78
2022/03/28 05:15:39;;;;;;;5.82;2.15;;;4.90;81.70;;;;;;4032382;28;20060;-78
2022/03/28 05:17:40;;;;;;;3.65;1.90;;;4.90;81.70;;;;;;4052171;28;20037;-78
2022/03/28 05:19:41;;;;;;;6.32;1.75;;;4.90;81.70;;;;;;4044863;28;20024;-78
2022/03/28 05:21:41;;;;;;;3.60;2.00;;;4.90;81.70;;;;;;4063304;28;20500;-78
2022/03/28 05:23:42;;;;;;;5.18;2.30;;;4.90;81.70;;;;;;4029855;29;20033;-78
2022/03/28 05:25:43;;;;;;;7.13;2.40;;;4.90;81.60;;;;;;4031206;29;20388;-78
2022/03/28 05:27:47;;;;;;;6.25;2.20;;;5.00;81.70;;;;;;4060146;28;20509;-78
2022/03/28 05:29:48;;;;;;;5.57;2.08;;;5.00;81.70;;;;;;4060853;28;20073;-78
2022/03/28 05:31:49;;;;;;;3.78;1.73;;;5.00;81.60;;;;;;4051690;28;20037;-78
2022/03/28 05:33:50;;;;;;;6.55;2.05;;;5.00;81.60;;;;;;4075558;28;20528;-78
2022/03/28 05:35:51;;;;;;;3.60;1.98;;;5.00;81.60;;;;;;4068296;28;20028;-78
2022/03/28 05:37:52;;;;;;;5.50;2.20;;;5.00;81.60;;;;;;4047914;28;20036;-78
2022/03/28 05:39:52;;;;;;;10.55;2.50;;;5.10;81.50;;;;;;4055095;28;20040;-78
2022/03/28 05:41:53;;;;;;;4.93;1.80;;;5.10;81.50;;;;;;4053994;28;20469;-78
2022/03/28 05:43:55;;;;;;;7.38;2.25;;;5.10;81.40;;;;;;4057304;28;20498;-78
2022/03/28 05:45:56;;;;;;;4.22;2.03;;;5.10;81.40;;;;;;4050352;28;20024;-78
2022/03/28 05:47:57;;;;;;;4.95;2.45;;;5.10;81.40;;;;;;4048270;28;20041;-78
2022/03/28 05:49:58;;;;;;;10.82;2.55;;;5.10;81.30;;;;;;4050686;28;20044;-78
2022/03/28 05:52:00;;;;;;;4.53;2.38;;;5.20;81.30;;;;;;4061136;28;20048;-78
2022/03/28 05:54:00;;;;;;;7.43;2.50;;;5.20;81.20;;;;;;4058633;28;20139;-78
2022/03/28 05:56:03;;;;;;;7.65;2.80;;;5.20;81.10;;;;;;4056121;28;20498;-78
2022/03/28 05:58:04;;;;;;;6.72;2.88;;;5.20;81.00;;;;;;4070261;28;20028;-78
2022/03/28 06:00:05;;;;;;;4.95;2.70;;;5.20;80.90;;;;;;4050198;28;20171;-78
2022/03/28 06:02:06;;;;;;;6.00;2.85;;;5.30;80.90;;;;;;4059994;28;20055;-78
2022/03/28 06:04:07;;;;;;;10.45;3.22;;;5.30;80.80;;;;;;4064184;28;20477;-78
2022/03/28 06:06:08;;;;;;;6.85;2.88;;;5.30;80.70;;;;;;4051540;28;20041;-78
2022/03/28 06:08:10;;;;;;;5.93;3.17;;;5.30;80.60;;;;;;4058537;28;20111;-78
2022/03/28 06:10:11;;;;;;;9.13;2.40;;;5.30;80.60;;;;;;4055021;28;20036;-78
2022/03/28 06:12:13;;;;;;;5.18;2.85;;;5.30;80.50;;;;;;4091589;28;20062;-78
2022/03/28 06:14:13;;;;;;;7.57;2.47;;;5.40;80.50;;;;;;4043758;28;20502;-78
2022/03/28 06:16:16;;;;;;;3.92;2.35;;;5.40;80.30;;;;;;4043313;28;20075;-79
2022/03/28 06:18:18;;;;;;;8.73;2.47;;;5.40;80.20;;;;;;4065144;28;20043;-78
2022/03/28 06:20:52;;;;;;;6.00;2.70;;;5.40;80.10;;;;;;4060201;28;20044;-78
2022/03/28 06:22:56;;;;;;;9.70;3.30;;;5.50;80.10;;;;;;4059267;28;20034;-79
2022/03/28 06:25:00;;;;;;;6.88;2.85;;;5.50;80.00;;;;;;4058876;28;20044;-78
2022/03/28 06:27:03;;;;;;;4.87;2.83;;;5.50;79.90;;;;;;4070737;28;20437;-79
2022/03/28 06:29:06;;;;;;;7.32;2.72;;;5.50;79.60;;;;;;4069629;28;20037;-79
2022/03/28 06:31:10;;;;;;;9.90;3.03;;;5.60;79.60;;;;;;4060198;28;20036;-78
2022/03/28 06:33:20;;;;;;;6.88;2.83;;;5.60;79.50;;;;;;4062622;28;20138;-78
2022/03/28 06:35:41;;;;;;;7.65;2.97;;;5.60;79.30;;;;;;4056174;29;20033;-79
2022/03/28 06:37:42;;;;;;;5.70;2.67;;;5.60;79.20;;;;;;4075532;28;20192;-78
2022/03/28 06:39:43;;;;;;;8.02;3.50;;;5.60;79.10;;;;;;4050756;28;20033;-78
2022/03/28 06:41:48;;;;;;;9.85;3.60;;;5.70;79.00;;;;;;4047204;28;20063;-78
2022/03/28 06:43:49;;;;;;;9.63;3.20;;;5.70;78.90;;;;;;4071072;28;20035;-78
2022/03/28 06:45:51;;;;;;;9.85;3.33;;;5.70;78.70;;;;;;4061375;28;20478;-78
2022/03/28 06:47:52;;;;;;;6.00;3.20;;;5.80;78.60;;;;;;4066578;28;20056;-78
2022/03/28 06:49:54;;;;;;;8.35;3.60;;;5.80;78.50;;;;;;4071304;28;20033;-79
2022/03/28 06:51:55;;;;;;;10.65;3.95;;;5.80;78.30;;;;;;4060335;28;20042;-79
2022/03/28 06:53:55;;;;;;;7.47;3.53;;;5.90;78.30;;;;;;4048748;28;20508;-79
2022/03/28 06:55:56;;;;;;;9.30;3.40;;;5.90;78.20;;;;;;4061363;28;20036;-79
2022/03/28 06:58:20;;;;;;;9.20;4.28;;;6.00;78.10;;;;;;4083893;28;20394;-79
2022/03/28 07:00:21;;;;;;;9.95;4.13;;;6.00;77.80;;;;;;4065915;28;20048;-78
2022/03/28 07:02:21;;;;;;;9.38;4.18;;;6.00;77.40;;;;;;4037649;28;20040;-78
2022/03/28 07:04:24;;;;;;;10.57;3.85;;;6.00;77.30;;;;;;4041352;28;20421;-78
2022/03/28 07:06:26;;;;;;;8.65;3.92;;;6.10;77.20;;;;;;4068574;28;20056;-79
2022/03/28 07:08:29;;;;;;;8.23;3.90;;;6.10;77.00;;;;;;4059187;28;20040;-79
2022/03/28 07:10:30;;;;;;;9.38;4.70;;;6.10;76.80;;;;;;4065224;28;20044;-79
2022/03/28 07:12:35;;;;;;;13.43;4.35;;;6.20;76.70;;;;;;4060917;28;20044;-79
2022/03/28 07:14:45;;;;;;;10.02;4.18;;;6.20;76.60;;;;;;4031325;28;20333;-79
2022/03/28 07:16:46;;;;;;;20.60;4.53;;;6.20;76.50;;;;;;4089157;28;20046;-79
2022/03/28 07:18:47;;;;;;;9.50;4.35;;;6.20;76.20;;;;;;4058502;28;20350;-79
2022/03/28 07:20:50;;;;;;;15.45;4.85;;;6.30;75.90;;;;;;4083140;28;20051;-79
2022/03/28 07:22:52;;;;;;;9.50;4.78;;;6.30;75.80;;;;;;4049044;28;20217;-79
2022/03/28 07:24:53;;;;;;;9.55;4.63;;;6.30;75.30;;;;;;4091593;28;20044;-78
2022/03/28 07:26:54;;;;;;;16.05;5.13;;;6.30;75.30;;;;;;4057936;28;20041;-79
2022/03/28 07:28:58;;;;;;;10.40;4.35;;;6.30;75.50;;;;;;4082005;28;20029;-78
2022/03/28 07:30:58;;;;;;;10.25;4.50;;;6.30;75.50;;;;;;4045737;28;20036;-78
2022/03/28 07:32:59;;;;;;;10.18;4.70;;;6.40;75.40;;;;;;4037299;28;20045;-78
2022/03/28 07:35:00;;;;;;;10.32;4.72;;;6.40;75.30;;;;;;4085745;28;20522;-78
2022/03/28 07:37:02;;;;;;;10.70;4.55;;;6.40;76.00;;;;;;4057672;28;20040;-78
2022/03/28 07:39:05;;;;;;;21.05;10.43;;;6.40;75.20;;;;;;4056988;28;20032;-78
2022/03/28 07:41:05;;;;;;;13.35;5.50;;;6.50;75.10;;;;;;4075170;28;20036;-78
2022/03/28 07:43:07;;;;;;;9.27;4.93;;;6.40;74.90;;;;;;4063342;28;20392;-78
2022/03/28 07:45:08;;;;;;;18.83;8.38;;;6.50;75.10;;;;;;4063200;28;20402;-78
2022/03/28 07:47:09;;;;;;;22.83;11.68;;;6.50;75.00;;;;;;4062270;28;20028;-78
2022/03/28 07:49:11;;;;;;;25.30;12.57;;;6.50;75.00;;;;;;4047693;28;20073;-78
2022/03/28 07:51:12;;;;;;;15.45;7.70;;;6.50;75.10;;;;;;4058435;28;20063;-78
2022/03/28 07:53:14;;;;;;;13.38;6.03;;;6.60;74.90;;;;;;4057154;28;20481;-78
2022/03/28 07:55:16;;;;;;;11.38;5.78;;;6.50;74.80;;;;;;4062256;28;20703;-78
2022/03/28 07:57:17;;;;;;;13.32;6.18;;;6.50;74.80;;;;;;4058702;28;20025;-78
2022/03/28 07:59:18;;;;;;;15.90;6.78;;;6.60;74.90;;;;;;4030162;29;20032;-78
2022/03/28 08:01:19;;;;;;;12.43;5.72;;;6.60;75.00;;;;;;4098228;28;20040;-78
2022/03/28 08:03:24;;;;;;;16.70;7.82;;;6.60;75.00;;;;;;4066369;28;20051;-78
2022/03/28 08:05:27;;;;;;;11.52;6.20;;;6.60;75.50;;;;;;4062003;28;20339;-79
2022/03/28 08:07:28;;;;;;;19.83;8.65;;;6.60;74.80;;;;;;4074591;28;20355;-78
2022/03/28 08:09:28;;;;;;;18.95;8.25;;;6.60;74.70;;;;;;4054748;28;20043;-78
2022/03/28 08:11:30;;;;;;;13.68;6.57;;;6.60;74.80;;;;;;4070614;28;20659;-78
2022/03/28 08:13:30;;;;;;;13.27;6.82;;;6.60;74.80;;;;;;4060697;28;20050;-79
2022/03/28 08:15:31;;;;;;;13.88;6.75;;;6.60;74.60;;;;;;4062573;28;20040;-78
2022/03/28 08:17:33;;;;;;;23.80;9.68;;;6.60;74.70;;;;;;4060311;28;20522;-79
2022/03/28 08:19:34;;;;;;;19.10;9.73;;;6.60;74.50;;;;;;4045552;28;20331;-78
2022/03/28 08:21:36;;;;;;;20.77;7.85;;;6.60;74.30;;;;;;4106933;28;20026;-79
2022/03/28 08:23:37;;;;;;;13.60;7.38;;;6.60;74.20;;;;;;4054815;28;20561;-79
2022/03/28 08:25:38;;;;;;;15.00;7.63;;;6.60;74.00;;;;;;4062747;28;20159;-78
2022/03/28 08:27:41;;;;;;;13.02;7.88;;;6.60;74.20;;;;;;4060905;28;20078;-78
2022/03/28 08:29:41;;;;;;;13.05;6.13;;;6.60;74.20;;;;;;4073103;28;20024;-79
2022/03/28 08:31:44;;;;;;;12.63;5.50;;;6.60;74.40;;;;;;4052140;28;20048;-79
2022/03/28 08:33:45;;;;;;;11.98;5.40;;;6.60;74.60;;;;;;4068522;28;20056;-79
2022/03/28 08:35:45;;;;;;;15.40;5.47;;;6.60;74.50;;;;;;4054514;28;20405;-76
2022/03/28 08:38:05;;;;;;;11.25;5.43;;;6.60;74.60;;;;;;4059546;28;20703;-83
2022/03/28 08:40:06;;;;;;;9.65;5.60;;;6.60;74.50;;;;;;4063476;28;20374;-83
2022/03/28 08:42:07;;;;;;;14.38;6.68;;;6.70;74.50;;;;;;4069962;28;20032;-83
2022/03/28 08:44:08;;;;;;;15.40;6.53;;;6.60;74.30;;;;;;4094686;28;20028;-83
2022/03/28 08:46:11;;;;;;;12.48;6.80;;;6.70;74.20;;;;;;4042697;28;20049;-83
2022/03/28 08:48:18;;;;;;;18.67;7.07;;;6.60;74.10;;;;;;4042096;28;20452;-83
2022/03/28 08:50:24;;;;;;;15.48;7.32;;;6.70;74.10;;;;;;4013293;29;20041;-84
2022/03/28 08:52:25;;;;;;;13.15;6.43;;;6.70;74.10;;;;;;4030476;28;20096;-84
2022/03/28 08:54:27;;;;;;;15.18;5.68;;;6.70;73.70;;;;;;4049784;28;20044;-84
2022/03/28 08:56:30;;;;;;;11.85;5.95;;;6.70;73.70;;;;;;4047948;28;20047;-83
2022/03/28 08:58:31;;;;;;;12.73;5.83;;;6.60;73.70;;;;;;4034129;29;20499;-83
2022/03/28 09:00:32;;;;;;;13.52;6.20;;;6.60;73.80;;;;;;4042095;28;20044;-83
2022/03/28 09:02:37;;;;;;;16.15;6.57;;;6.60;73.80;;;;;;4041085;28;20045;-83
2022/03/28 09:04:40;;;;;;;13.13;6.05;;;6.60;74.10;;;;;;4035167;28;20455;-83
2022/03/28 09:06:45;;;;;;;16.50;6.57;;;6.60;74.40;;;;;;4007610;29;20037;-83
2022/03/28 09:08:53;;;;;;;13.35;6.50;;;6.60;74.40;;;;;;4015360;29;20041;-83
2022/03/28 09:10:59;;;;;;;15.50;7.10;;;6.60;74.30;;;;;;4021653;28;20564;-83
2022/03/28 09:13:06;;;;;;;19.98;7.18;;;6.60;74.40;;;;;;4021284;29;20105;-83
2022/03/28 09:15:09;;;;;;;17.92;6.30;;;6.70;74.50;;;;;;4034518;28;20068;-83
2022/03/28 09:17:15;;;;;;;12.68;6.90;;;6.70;74.40;;;;;;4023501;29;20039;-83
2022/03/28 09:19:17;;;;;;;15.45;6.55;;;6.80;74.50;;;;;;4001368;29;20038;-83
2022/03/28 09:21:20;;;;;;;12.05;6.25;;;6.80;74.30;;;;;;4027252;28;20046;-83
2022/03/28 09:23:36;;;;;;;13.80;6.22;;;6.80;74.30;;;;;;4040256;28;20356;-83
2022/03/28 09:25:50;;;;;;;15.82;7.45;;;6.80;74.30;;;;;;4067197;28;20051;-83
2022/03/28 09:27:50;;;;;;;15.50;6.80;;;6.90;74.30;;;;;;4035346;28;20025;-83
2022/03/28 09:30:05;;;;;;;15.43;6.47;;;6.80;74.10;;;;;;4052293;28;20164;-83
2022/03/28 09:32:20;;;;;;;17.13;7.78;;;6.80;73.90;;;;;;4061042;28;20721;-83
2022/03/28 09:34:20;;;;;;;16.80;7.25;;;6.80;74.00;;;;;;4027685;28;20041;-83
2022/03/28 09:36:40;;;;;;;18.10;7.63;;;6.80;74.20;;;;;;4060911;28;20075;-82
2022/03/28 09:39:01;;;;;;;13.38;7.18;;;6.80;74.50;;;;;;4068483;28;20036;-82
2022/03/28 09:43:30;;;;;;;14.32;7.00;;;6.90;74.60;;;;;;4066880;28;20056;-81
2022/03/28 09:45:37;;;;;;;13.55;7.22;;;6.90;74.60;;;;;;4075798;28;20022;-81
2022/03/28 09:47:37;;;;;;;17.20;7.65;;;6.90;74.60;;;;;;4043242;28;20045;-81
2022/03/28 09:49:39;;;;;;;16.55;7.32;;;6.90;74.60;;;;;;4068965;28;21056;-80
2022/03/28 09:51:39;;;;;;;18.70;8.02;;;6.90;74.80;;;;;;4059535;28;20047;-80
2022/03/28 09:53:41;;;;;;;21.88;8.48;;;6.90;74.70;;;;;;4072397;28;20396;-80
2022/03/28 09:55:45;;;;;;;19.42;7.35;;;6.90;74.60;;;;;;4070965;28;20109;-80
2022/03/28 09:57:46;;;;;;;19.23;7.80;;;6.90;74.80;;;;;;4077578;28;20036;-80
2022/03/28 09:59:47;;;;;;;19.52;8.32;;;6.90;74.80;;;;;;4063337;28;20044;-80
2022/03/28 10:01:47;;;;;;;16.73;7.45;;;7.00;74.70;;;;;;4080038;28;20036;-82
2022/03/28 10:03:50;;;;;;;15.00;7.50;;;7.00;74.70;;;;;;4051666;28;20028;-81
2022/03/28 10:05:51;;;;;;;18.20;7.78;;;7.00;74.60;;;;;;4076256;28;20040;-81
2022/03/28 10:07:54;;;;;;;18.75;7.88;;;7.00;74.80;;;;;;4076873;28;20789;-81
2022/03/28 10:09:54;;;;;;;18.70;7.28;;;7.00;74.90;;;;;;4073130;28;20043;-82
2022/03/28 10:11:55;;;;;;;15.55;6.88;;;7.00;75.10;;;;;;4058257;28;20036;-80
2022/03/28 10:13:56;;;;;;;15.35;7.40;;;7.00;75.10;;;;;;4067449;28;20013;-82
2022/03/28 10:15:58;;;;;;;16.38;6.70;;;7.00;75.10;;;;;;4069719;28;20056;-82
2022/03/28 10:17:58;;;;;;;14.13;6.72;;;7.10;75.30;;;;;;4111605;28;20106;-82
2022/03/28 10:19:59;;;;;;;14.95;6.85;;;7.10;75.30;;;;;;4062703;28;20028;-82
2022/03/28 10:22:02;;;;;;;14.57;6.18;;;7.20;75.00;;;;;;4087613;28;20028;-82
2022/03/28 10:24:29;;;;;;;14.40;7.28;;;7.20;74.50;;;;;;4046433;28;20025;-81
2022/03/28 10:26:32;;;;;;;15.70;7.00;;;7.20;74.00;;;;;;4065060;28;20099;-81
2022/03/28 10:28:32;;;;;;;17.10;6.35;;;7.20;74.00;;;;;;4057053;28;20045;-81
2022/03/28 10:30:33;;;;;;;15.88;7.40;;;7.20;74.10;;;;;;4062278;28;20093;-81
2022/03/28 10:32:34;;;;;;;15.10;6.90;;;7.20;74.20;;;;;;4071607;28;20028;-81
2022/03/28 10:34:59;;;;;;;19.35;7.65;;;7.20;74.20;;;;;;4088608;28;20026;-83
2022/03/28 10:37:29;;;;;;;15.20;6.32;;;7.20;73.90;;;;;;4131070;28;20105;-81
2022/03/28 10:39:34;;;;;;;14.40;7.00;;;7.20;73.90;;;;;;4070317;28;20043;-81
2022/03/28 10:41:35;;;;;;;14.52;6.47;;;7.20;74.00;;;;;;4120436;28;20034;-81
2022/03/28 10:43:36;;;;;;;14.73;6.13;;;7.10;74.10;;;;;;4058588;28;20452;-81
2022/03/28 10:45:37;;;;;;;14.80;5.97;;;7.10;74.40;;;;;;4066106;28;20065;-81
2022/03/28 10:47:59;;;;;;;9.15;4.75;;;7.10;74.30;;;;;;4069206;28;20087;-81